Time;durP1;ratioP1;P1;durP2;ratioP2;P2;SDS_P1;SDS_P2;PMS_P1;PMS_P2;Temp;Humidity;BMP_temperature;BMP_pressure;BME280_temperature;BME280_humidity;BME280_pressure;Samples;Min_cycle;Max_cycle;Signal;HPM_P1;HPM_P2
2021/04/26 00:00:04;;;;;;;24.90;12.45;;;;;;;6.14;60.28;99970.34;1695612;83;21137;-74
2021/04/26 00:02:34;;;;;;;24.92;12.40;;;;;;;6.15;59.87;99963.00;1686580;82;21239;-75
2021/04/26 00:05:05;;;;;;;18.40;10.60;;;;;;;6.15;59.88;99965.72;1685656;82;21208;-74
2021/04/26 00:07:35;;;;;;;21.55;11.60;;;;;;;6.15;58.88;99961.12;1704021;82;21131;-73
2021/04/26 00:10:05;;;;;;;24.60;11.73;;;;;;;6.16;59.00;99967.39;1691923;82;21564;-73
2021/04/26 00:12:36;;;;;;;26.50;11.95;;;;;;;6.16;58.73;99964.16;1689865;82;21158;-72
2021/04/26 00:15:09;;;;;;;28.55;12.23;;;;;;;6.16;59.34;99961.95;1685463;84;21219;-75
2021/04/26 00:17:38;;;;;;;24.87;11.90;;;;;;;6.16;60.12;99961.44;1686596;85;21626;-79
2021/04/26 00:20:09;;;;;;;21.52;11.18;;;;;;;6.17;58.93;99963.63;1705198;82;21533;-72
2021/04/26 00:22:37;;;;;;;23.90;12.25;;;;;;;6.17;58.28;99966.34;1706545;84;21597;-73
2021/04/26 00:25:06;;;;;;;22.13;11.18;;;;;;;6.15;58.08;99960.28;1682988;82;21597;-74
2021/04/26 00:27:35;;;;;;;21.15;10.55;;;;;;;6.15;58.43;99965.72;1702175;84;21172;-73
2021/04/26 00:30:06;;;;;;;21.00;10.40;;;;;;;6.15;57.85;99963.00;1690738;83;21175;-78
2021/04/26 00:32:35;;;;;;;20.45;10.25;;;;;;;6.14;57.21;99959.48;1706061;84;21629;-74
2021/04/26 00:35:06;;;;;;;19.77;10.15;;;;;;;6.14;57.00;99961.36;1709232;82;21162;-72
2021/04/26 00:37:35;;;;;;;19.87;10.82;;;;;;;6.14;56.76;99961.36;1713342;84;21593;-77
2021/04/26 00:40:04;;;;;;;;;;;;;;;6.14;57.16;99954.56;1687484;83;21162;-76
2021/04/26 00:42:33;;;;;;;20.08;10.08;;;;;;;6.13;57.12;99958.33;1683199;82;20282;-76
2021/04/26 00:45:01;;;;;;;18.87;9.38;;;;;;;6.10;56.87;99950.10;1661024;83;21175;-74
2021/04/26 00:47:28;;;;;;;17.62;9.78;;;;;;;6.10;56.82;99953.34;1707466;84;21187;-77
2021/04/26 00:49:56;;;;;;;18.65;9.68;;;;;;;6.08;57.00;99947.31;1706702;82;21183;-73
2021/04/26 00:52:24;;;;;;;20.80;10.77;;;;;;;6.05;56.91;99951.31;1706328;84;21194;-76
2021/04/26 00:54:52;;;;;;;16.87;10.05;;;;;;;6.02;57.20;99949.04;1683557;82;21170;-73
2021/04/26 00:57:21;;;;;;;20.25;9.70;;;;;;;5.98;56.93;99948.37;1678542;85;21657;-76
2021/04/26 00:59:49;;;;;;;18.27;9.83;;;;;;;5.95;56.63;99943.38;1679287;85;21170;-76
2021/04/26 01:02:16;;;;;;;21.48;9.93;;;;;;;5.93;56.74;99937.35;1703570;82;21168;-77
2021/04/26 01:04:46;;;;;;;18.25;9.73;;;;;;;5.88;56.87;99946.19;1674388;84;21256;-73
2021/04/26 01:07:14;;;;;;;;;;;;;;;5.86;56.85;99936.60;1702638;82;21097;-77
2021/04/26 01:09:42;;;;;;;17.40;9.38;;;;;;;5.82;57.19;99944.33;1669784;84;20218;-73
2021/04/26 01:12:57;;;;;;;19.12;9.68;;;;;;;5.77;58.09;99934.66;1688107;82;21149;-75
2021/04/26 01:15:49;;;;;;;21.55;10.00;;;;;;;5.72;58.08;99933.99;1674206;86;21205;-73
2021/04/26 01:18:30;;;;;;;17.87;9.78;;;;;;;5.65;57.73;99931.87;1738443;82;21129;-76
2021/04/26 01:21:23;;;;;;;20.10;10.45;;;;;;;5.58;58.38;99932.48;1729229;82;21240;-72
2021/04/26 01:24:38;;;;;;;26.40;11.95;;;;;;;5.53;58.46;99928.25;1703173;83;21219;-76
2021/04/26 01:27:43;;;;;;;25.02;12.45;;;;;;;5.46;59.75;99924.77;1717669;82;21163;-73
2021/04/26 01:30:18;;;;;;;22.45;12.18;;;;;;;5.40;61.23;99925.66;1674115;86;21222;-78
2021/04/26 01:33:17;;;;;;;26.52;12.90;;;;;;;5.35;61.22;99928.73;1669012;82;21252;-71
2021/04/26 01:35:46;;;;;;;23.73;13.00;;;;;;;5.30;61.25;99923.97;1706855;83;21255;-77
2021/04/26 01:38:18;;;;;;;23.07;12.93;;;;;;;5.26;61.42;99928.20;1712723;81;21148;-73
2021/04/26 01:40:48;;;;;;;22.87;13.22;;;;;;;5.22;61.56;99923.41;1673681;86;21153;-71
2021/04/26 01:43:20;;;;;;;28.67;12.63;;;;;;;5.15;61.86;99916.70;1685828;82;21184;-77
2021/04/26 01:45:51;;;;;;;22.70;12.43;;;;;;;5.12;62.30;99923.39;1682832;83;21147;-75
2021/04/26 01:48:19;;;;;;;23.67;12.45;;;;;;;5.09;61.82;99917.57;1698560;82;21260;-76
2021/04/26 01:50:49;;;;;;;25.60;11.85;;;;;;;5.07;61.74;99910.19;1694562;84;21180;-75
2021/04/26 01:53:18;;;;;;;29.07;12.55;;;;;;;5.04;61.91;99910.10;1672252;82;21197;-76
2021/04/26 01:55:46;;;;;;;19.57;10.53;;;;;;;5.02;61.46;99908.66;1703349;84;21150;-76
2021/04/26 01:58:16;;;;;;;23.87;11.53;;;;;;;5.01;61.07;99905.11;1675837;84;21150;-74
2021/04/26 02:00:44;;;;;;;23.12;11.43;;;;;;;5.01;61.84;99902.41;1674524;82;21299;-74
2021/04/26 02:03:13;;;;;;;19.82;11.08;;;;;;;4.99;61.63;99904.52;1681293;84;21188;-73
2021/04/26 02:05:45;;;;;;;23.50;11.75;;;;;;;4.97;61.21;99911.20;1734681;81;21209;-76
2021/04/26 02:08:15;;;;;;;21.65;10.98;;;;;;;4.96;61.16;99909.02;1675182;84;21152;-72
2021/04/26 02:10:44;;;;;;;19.40;10.38;;;;;;;4.96;61.35;99906.30;1659553;85;21153;-73
2021/04/26 02:13:19;;;;;;;19.67;10.98;;;;;;;4.97;61.13;99903.91;1706449;84;21585;-74
2021/04/26 02:15:53;;;;;;;32.55;11.97;;;;;;;4.98;61.09;99912.88;1676938;83;21149;-75
2021/04/26 02:18:22;;;;;;;23.10;11.00;;;;;;;4.98;61.29;99907.45;1689687;84;21172;-73
2021/04/26 02:20:50;;;;;;;20.50;10.88;;;;;;;4.97;62.04;99906.62;1664781;83;21165;-73
2021/04/26 02:23:19;;;;;;;20.88;11.10;;;;;;;4.97;61.71;99900.36;1682972;85;21150;-74
2021/04/26 02:25:47;;;;;;;22.22;10.53;;;;;;;4.95;61.77;99896.52;1691968;82;21128;-74
2021/04/26 02:28:17;;;;;;;23.57;10.63;;;;;;;4.95;61.55;99897.05;1652099;85;21132;-74
2021/04/26 02:30:45;;;;;;;24.30;10.75;;;;;;;4.95;62.08;99899.23;1684296;82;21172;-72
2021/04/26 02:33:16;;;;;;;27.37;11.10;;;;;;;4.95;61.46;99891.62;1696430;83;21171;-74
2021/04/26 02:36:12;;;;;;;29.02;10.93;;;;;;;4.96;61.41;99894.09;1689188;82;21647;-74
2021/04/26 02:38:47;;;;;;;30.62;11.85;;;;;;;4.95;61.36;99903.30;1685393;84;21346;-72
2021/04/26 02:41:20;;;;;;;26.90;11.60;;;;;;;4.95;61.27;99899.75;1670051;84;21556;-73
2021/04/26 02:43:53;;;;;;;27.62;11.30;;;;;;;4.94;60.97;99892.66;1679466;85;21219;-72
2021/04/26 02:46:24;;;;;;;28.20;12.78;;;;;;;4.92;61.57;99893.41;1691311;82;21161;-73
2021/04/26 02:48:53;;;;;;;24.72;11.40;;;;;;;4.92;62.16;99896.13;1679604;84;21130;-78
2021/04/26 02:51:21;;;;;;;26.95;12.07;;;;;;;4.91;61.97;99902.06;1684357;82;21260;-78
2021/04/26 02:53:49;;;;;;;27.58;11.63;;;;;;;4.92;62.01;99901.55;1706569;84;21173;-78
2021/04/26 02:56:19;;;;;;;28.02;12.13;;;;;;;4.93;61.74;99904.58;1706118;82;21281;-76
2021/04/26 02:58:52;;;;;;;25.65;12.50;;;;;;;4.95;61.30;99907.89;1643545;84;21160;-74
2021/04/26 03:01:22;;;;;;;24.02;11.08;;;;;;;4.99;61.15;99905.03;1643051;84;21660;-76
2021/04/26 03:04:04;;;;;;;31.25;12.25;;;;;;;5.02;60.85;99895.10;1687453;82;21140;-77
2021/04/26 03:06:40;;;;;;;26.48;11.35;;;;;;;5.07;60.75;99900.70;1647229;82;21749;-75
2021/04/26 03:09:17;;;;;;;25.40;11.00;;;;;;;5.11;60.80;99899.19;1692493;82;21164;-72
2021/04/26 03:11:47;;;;;;;29.82;12.23;;;;;;;5.15;60.12;99896.35;1680866;84;21215;-78
2021/04/26 03:14:16;;;;;;;29.37;12.63;;;;;;;5.18;60.21;99901.34;1660880;83;21177;-78
2021/04/26 03:16:47;;;;;;;26.37;12.15;;;;;;;5.20;60.33;99901.94;1630227;84;21609;-72
2021/04/26 03:19:16;;;;;;;31.42;12.93;;;;;;;5.21;60.46;99894.64;1733400;82;21105;-76
2021/04/26 03:21:48;;;;;;;26.30;12.20;;;;;;;5.22;60.61;99895.76;1708873;82;21172;-72
2021/04/26 03:24:19;;;;;;;22.40;11.93;;;;;;;5.24;60.44;99892.84;1699291;82;21569;-71
2021/04/26 03:26:51;;;;;;;28.25;12.85;;;;;;;5.25;59.64;99890.41;1691138;84;21188;-74
2021/04/26 03:29:21;;;;;;;33.10;12.95;;;;;;;5.25;59.41;99893.13;1691583;82;21614;-75
2021/04/26 03:31:50;;;;;;;27.07;12.73;;;;;;;5.25;59.62;99885.82;1679088;85;21183;-74
2021/04/26 03:34:20;;;;;;;30.80;13.03;;;;;;;5.27;59.89;99891.84;1691076;82;21141;-76
2021/04/26 03:36:47;;;;;;;26.57;12.68;;;;;;;5.29;60.10;99886.22;1673733;84;21600;-72
2021/04/26 03:39:16;;;;;;;30.62;12.88;;;;;;;5.29;59.97;99884.31;1714500;82;21179;-77
2021/04/26 03:41:44;;;;;;;;;;;;;;;5.31;60.39;99883.59;1691939;84;21156;-73
2021/04/26 03:44:15;;;;;;;25.45;12.25;;;;;;;5.34;60.46;99880.40;1696105;82;20340;-72
2021/04/26 03:47:03;;;;;;;28.32;13.10;;;;;;;5.37;60.14;99878.60;1703235;84;21175;-76
2021/04/26 03:49:42;;;;;;;32.00;13.20;;;;;;;5.41;59.91;99881.71;1667759;85;21635;-72
2021/04/26 03:52:28;;;;;;;25.92;12.70;;;;;;;5.44;59.71;99882.62;1674502;85;21236;-72
2021/04/26 03:55:08;;;;;;;25.77;12.07;;;;;;;5.50;59.72;99870.33;1581664;88;21191;-76
2021/04/26 03:57:36;;;;;;;27.65;12.10;;;;;;;5.54;59.25;99871.53;1731111;81;21132;-74
2021/04/26 04:00:08;;;;;;;23.70;12.20;;;;;;;5.61;59.91;99871.47;1730982;80;21087;-75
2021/04/26 04:02:38;;;;;;;27.67;12.73;;;;;;;5.64;59.60;99864.24;1731676;82;21547;-79
2021/04/26 04:05:09;;;;;;;25.35;11.22;;;;;;;5.71;59.33;99871.78;1742907;80;21148;-75
2021/04/26 04:07:57;;;;;;;22.87;11.43;;;;;;;5.78;58.83;99862.50;1673422;85;21341;-71
2021/04/26 04:10:44;;;;;;;21.52;9.88;;;;;;;5.88;57.81;99864.70;1649920;86;21197;-78
2021/04/26 04:13:17;;;;;;;24.80;10.55;;;;;;;5.94;56.60;99861.61;1627539;87;21200;-72
2021/04/26 04:15:45;;;;;;;22.10;9.65;;;;;;;6.02;56.83;99862.66;1682117;81;21243;-69
2021/04/26 04:18:15;;;;;;;21.45;10.00;;;;;;;6.08;56.11;99864.45;1673843;84;21572;-77
2021/04/26 04:20:44;;;;;;;30.25;10.45;;;;;;;6.14;55.68;99863.55;1703909;82;21117;-76
2021/04/26 04:23:12;;;;;;;20.57;10.00;;;;;;;6.19;56.01;99867.23;1724001;81;21134;-77
2021/04/26 04:25:41;;;;;;;26.68;9.55;;;;;;;6.25;55.48;99863.58;1745297;82;21157;-77
2021/04/26 04:28:09;;;;;;;28.50;10.95;;;;;;;6.32;56.05;99862.15;1743188;81;21191;-71
2021/04/26 04:30:38;;;;;;;32.60;10.28;;;;;;;6.38;55.97;99868.00;1736541;82;21123;-73
2021/04/26 04:33:06;;;;;;;41.03;12.27;;;;;;;6.43;55.69;99858.63;1732397;81;21164;-72
2021/04/26 04:35:34;;;;;;;36.33;11.85;;;;;;;6.50;54.77;99851.75;1736683;82;21213;-77
2021/04/26 04:38:16;;;;;;;31.93;11.57;;;;;;;6.54;54.72;99849.69;1671753;82;21608;-76
2021/04/26 04:40:58;;;;;;;25.32;10.48;;;;;;;6.59;54.24;99846.27;1637693;86;21199;-73
2021/04/26 04:43:28;;;;;;;27.22;10.80;;;;;;;6.62;53.97;99845.28;1679436;82;21182;-73
2021/04/26 04:45:56;;;;;;;32.25;11.20;;;;;;;6.64;53.96;99847.23;1679050;85;21173;-73
2021/04/26 04:48:45;;;;;;;27.93;11.03;;;;;;;6.67;54.47;99845.94;1679315;82;21588;-77
2021/04/26 04:51:15;;;;;;;34.98;10.40;;;;;;;6.68;54.00;99839.45;1667056;84;21657;-71
2021/04/26 04:53:45;;;;;;;31.12;10.23;;;;;;;6.69;53.78;99838.37;1684067;83;21187;-73
2021/04/26 04:56:13;;;;;;;27.40;11.50;;;;;;;6.70;53.77;99839.52;1689088;84;21133;-71
2021/04/26 04:58:43;;;;;;;21.73;9.65;;;;;;;6.72;54.25;99842.82;1678878;82;21582;-71
2021/04/26 05:01:12;;;;;;;23.77;10.08;;;;;;;6.72;53.53;99844.18;1690292;84;21276;-76
2021/04/26 05:03:59;;;;;;;31.37;11.08;;;;;;;6.72;53.72;99837.38;1708076;82;21160;-72
2021/04/26 05:06:46;;;;;;;33.38;11.90;;;;;;;6.74;53.64;99836.61;1700298;84;21173;-78
2021/04/26 05:09:21;;;;;;;23.42;10.23;;;;;;;6.74;53.91;99832.53;1675510;81;21176;-75
2021/04/26 05:12:08;;;;;;;25.30;11.78;;;;;;;6.80;54.19;99834.85;1726928;81;21156;-76
2021/04/26 05:14:46;;;;;;;24.67;11.53;;;;;;;6.84;53.86;99830.06;1748016;81;21592;-75
2021/04/26 05:17:13;;;;;;;23.90;10.23;;;;;;;6.89;53.83;99835.63;1760747;81;21133;-75
2021/04/26 05:19:41;;;;;;;28.47;11.20;;;;;;;6.90;54.14;99837.82;1740117;81;21141;-74
2021/04/26 05:22:09;;;;;;;26.45;11.22;;;;;;;6.90;54.04;99834.58;1690952;84;21226;-74
2021/04/26 05:24:38;;;;;;;32.80;13.75;;;;;;;6.94;53.91;99835.75;1704593;82;21145;-76
2021/04/26 05:27:07;;;;;;;23.32;11.30;;;;;;;6.97;54.58;99827.13;1667419;84;21673;-76
2021/04/26 05:29:35;;;;;;;23.47;11.22;;;;;;;6.99;53.75;99823.63;1704814;82;21156;-75
2021/04/26 05:32:04;;;;;;;28.83;10.98;;;;;;;7.04;53.60;99823.75;1751594;81;21690;-77
2021/04/26 05:34:32;;;;;;;29.48;10.88;;;;;;;7.12;53.74;99827.17;1749436;81;21571;-78
2021/04/26 05:37:00;;;;;;;29.67;11.20;;;;;;;7.19;53.80;99816.99;1745253;81;21124;-72
2021/04/26 05:39:32;;;;;;;24.10;10.65;;;;;;;7.26;53.26;99815.80;1708248;83;21200;-72
2021/04/26 05:42:00;;;;;;;41.53;20.65;;;;;;;7.36;53.77;99805.14;1689322;82;21542;-73
2021/04/26 05:44:28;;;;;;;28.02;11.93;;;;;;;7.46;54.17;99812.73;1704896;83;21147;-73
2021/04/26 05:47:00;;;;;;;36.40;12.80;;;;;;;7.54;54.17;99807.73;1705063;82;21209;-71
2021/04/26 05:49:28;;;;;;;25.57;11.60;;;;;;;7.62;53.60;99802.44;1712636;84;21648;-74
2021/04/26 05:51:56;;;;;;;27.17;12.05;;;;;;;7.71;53.45;99800.19;1700872;82;21189;-72
2021/04/26 05:54:25;;;;;;;23.67;11.18;;;;;;;7.78;53.47;99799.50;1713276;82;21163;-73
2021/04/26 05:56:53;;;;;;;32.03;10.90;;;;;;;7.86;53.23;99805.94;1711384;82;21117;-74
2021/04/26 05:59:21;;;;;;;32.83;12.65;;;;;;;7.96;52.94;99796.08;1692809;83;21877;-74
2021/04/26 06:01:49;;;;;;;40.55;15.50;;;;;;;8.09;53.03;99794.43;1704487;82;21229;-73
2021/04/26 06:04:17;;;;;;;24.67;11.93;;;;;;;8.19;52.77;99790.53;1694305;84;21142;-78
2021/04/26 06:06:45;;;;;;;26.85;12.43;;;;;;;8.28;53.05;99784.16;1747460;81;21252;-78
2021/04/26 06:09:15;;;;;;;32.73;12.03;;;;;;;8.49;52.56;99781.27;1736949;81;21105;-77
2021/04/26 06:11:43;;;;;;;31.12;11.88;;;;;;;8.49;52.56;99781.27;1684597;84;21175;-77
2021/04/26 06:14:11;;;;;;;28.87;11.38;;;;;;;8.61;52.21;99777.92;1681248;82;21258;-78
2021/04/26 06:16:39;;;;;;;31.40;11.83;;;;;;;8.73;52.00;99776.77;1693363;82;21982;-77
2021/04/26 06:19:08;;;;;;;29.67;11.57;;;;;;;8.84;51.90;99772.30;1681364;82;21207;-77
2021/04/26 06:21:36;;;;;;;25.17;13.08;;;;;;;8.95;51.90;99771.40;1693367;84;21192;-76
2021/04/26 06:24:06;;;;;;;26.05;12.37;;;;;;;9.07;51.36;99773.48;1705961;82;21244;-78
2021/04/26 06:26:34;;;;;;;27.52;10.48;;;;;;;9.16;50.96;99765.14;1671773;84;21588;-77
2021/04/26 06:29:03;;;;;;;24.63;10.50;;;;;;;9.24;51.00;99757.89;1701363;82;21145;-75
2021/04/26 06:31:31;;;;;;;26.73;9.28;;;;;;;9.38;50.82;99755.63;1684303;84;21165;-77
2021/04/26 06:33:59;;;;;;;22.27;9.10;;;;;;;9.54;50.15;99756.94;1704491;82;21170;-79
2021/04/26 06:36:28;;;;;;;21.02;8.58;;;;;;;9.69;49.81;99752.19;1706304;83;21181;-77
2021/04/26 06:38:56;;;;;;;21.30;9.13;;;;;;;9.88;49.67;99745.86;1685758;83;21233;-75
2021/04/26 06:41:24;;;;;;;22.35;9.35;;;;;;;10.03;49.12;99748.77;1709323;82;21579;-78
2021/04/26 06:43:53;;;;;;;22.98;8.18;;;;;;;10.15;47.98;99746.19;1702141;82;21158;-77
2021/04/26 06:46:21;;;;;;;21.00;7.72;;;;;;;10.27;47.49;99749.32;1706496;83;21143;-79
2021/04/26 06:48:49;;;;;;;18.65;7.62;;;;;;;10.36;47.11;99751.33;1704493;82;21750;-78
2021/04/26 06:51:17;;;;;;;21.00;7.73;;;;;;;10.47;46.92;99748.97;1679670;82;21105;-75
2021/04/26 06:53:44;;;;;;;18.35;7.03;;;;;;;10.57;47.12;99743.59;1680373;84;21444;-78
2021/04/26 06:56:12;;;;;;;26.47;7.87;;;;;;;10.66;46.89;99743.38;1691235;82;21385;-76
2021/04/26 06:58:40;;;;;;;21.80;8.18;;;;;;;10.79;46.67;99744.31;1704051;83;21186;-78
2021/04/26 07:01:08;;;;;;;21.07;7.20;;;;;;;10.91;46.44;99739.17;1696880;82;21148;-77
2021/04/26 07:03:38;;;;;;;14.15;5.90;;;;;;;10.98;45.38;99726.09;1703341;84;21112;-78
2021/04/26 07:06:06;;;;;;;16.90;5.97;;;;;;;11.09;44.89;99732.73;1694366;82;21726;-80
2021/04/26 07:08:35;;;;;;;19.05;5.87;;;;;;;11.17;44.04;99730.05;1710698;83;21163;-78
2021/04/26 07:11:03;;;;;;;20.85;6.58;;;;;;;11.26;44.84;99732.55;1697795;82;21181;-78
2021/04/26 07:13:32;;;;;;;18.73;5.97;;;;;;;11.34;43.78;99721.92;1684702;85;21206;-78
2021/04/26 07:16:00;;;;;;;24.80;6.85;;;;;;;11.44;44.06;99722.51;1680360;83;21136;-79
2021/04/26 07:18:29;;;;;;;18.45;5.75;;;;;;;11.54;44.30;99716.23;1685634;84;21249;-78
2021/04/26 07:20:57;;;;;;;19.52;5.75;;;;;;;11.65;43.02;99705.06;1682606;83;21261;-76
2021/04/26 07:23:25;;;;;;;13.43;5.67;;;;;;;11.75;42.55;99705.13;1716598;82;21200;-77
2021/04/26 07:25:54;;;;;;;15.83;5.05;;;;;;;11.85;42.66;99701.05;1684468;82;21607;-77
2021/04/26 07:28:22;;;;;;;;;;;;;;;11.97;41.82;99704.36;1689446;83;21128;-77
2021/04/26 07:30:50;;;;;;;15.70;4.97;;;;;;;12.04;41.48;99688.45;1702648;84;20196;-73
2021/04/26 07:33:17;;;;;;;13.65;4.97;;;;;;;12.13;41.50;99685.19;1665782;83;21205;-77
2021/04/26 07:35:47;;;;;;;17.90;5.10;;;;;;;12.23;41.45;99674.22;1678352;85;21175;-72
2021/04/26 07:38:15;;;;;;;13.40;4.70;;;;;;;12.33;40.95;99681.09;1694222;82;21647;-76
2021/04/26 07:40:43;;;;;;;16.00;4.73;;;;;;;12.40;40.64;99670.66;1701974;83;21597;-74
2021/04/26 07:43:11;;;;;;;11.20;4.92;;;;;;;12.48;39.49;99670.11;1692349;82;21208;-76
2021/04/26 07:45:39;;;;;;;14.35;4.97;;;;;;;12.50;38.63;99670.11;1689648;84;21426;-74
2021/04/26 07:48:07;;;;;;;11.12;3.77;;;;;;;12.52;38.84;99661.62;1687171;82;21272;-74
2021/04/26 07:50:36;;;;;;;11.85;3.98;;;;;;;12.55;38.55;99661.87;1692539;84;21239;-77
2021/04/26 07:53:04;;;;;;;9.80;4.00;;;;;;;12.61;37.56;99662.70;1704922;82;21165;-76
2021/04/26 07:55:31;;;;;;;10.78;4.20;;;;;;;12.67;36.83;99665.72;1680828;84;21629;-80
2021/04/26 07:57:59;;;;;;;11.60;4.37;;;;;;;12.71;36.57;99659.94;1706895;82;21754;-79
2021/04/26 08:00:27;;;;;;;11.50;3.83;;;;;;;12.66;36.73;99663.52;1700275;82;21639;-81
2021/04/26 08:02:57;;;;;;;20.08;6.05;;;;;;;12.64;37.75;99660.78;1678358;83;21543;-79
2021/04/26 08:05:27;;;;;;;12.70;4.90;;;;;;;12.65;37.82;99652.80;1698757;83;21630;-75
2021/04/26 08:07:55;;;;;;;14.65;4.70;;;;;;;12.68;37.67;99654.99;1700449;83;21183;-76
2021/04/26 08:10:24;;;;;;;10.53;4.28;;;;;;;12.66;37.56;99662.14;1738236;81;21165;-75
2021/04/26 08:12:52;;;;;;;25.08;4.97;;;;;;;12.66;36.90;99648.96;1675713;84;21727;-72
2021/04/26 08:15:22;;;;;;;24.77;5.42;;;;;;;12.65;36.40;99644.56;1684281;83;21281;-78
2021/04/26 08:17:52;;;;;;;33.83;5.00;;;;;;;12.69;36.39;99648.41;1703755;82;21143;-76
2021/04/26 08:20:21;;;;;;;14.73;4.10;;;;;;;12.73;35.91;99644.83;1707600;82;21701;-76
2021/04/26 08:22:50;;;;;;;10.78;3.98;;;;;;;12.79;35.95;99640.70;1704137;84;21181;-78
2021/04/26 08:25:18;;;;;;;11.35;4.67;;;;;;;12.85;36.12;99635.48;1684602;83;21158;-76
2021/04/26 08:27:49;;;;;;;10.23;4.58;;;;;;;12.90;36.22;99644.53;1694365;83;21203;-78
2021/04/26 08:30:18;;;;;;;9.18;3.67;;;;;;;12.95;36.49;99636.28;1696499;82;21620;-78
2021/04/26 08:32:47;;;;;;;16.07;4.30;;;;;;;12.97;35.62;99646.44;1684607;84;21695;-83
2021/04/26 08:35:16;;;;;;;10.23;3.87;;;;;;;12.99;35.48;99634.61;1696320;82;21188;-79
2021/04/26 08:37:44;;;;;;;8.65;3.62;;;;;;;13.03;34.95;99630.77;1684619;84;21622;-78
2021/04/26 08:40:12;;;;;;;11.55;4.10;;;;;;;13.05;34.96;99631.30;1726746;82;21129;-79
2021/04/26 08:42:40;;;;;;;12.07;4.55;;;;;;;13.07;35.66;99625.83;1719332;82;21350;-76
2021/04/26 08:45:10;;;;;;;20.37;6.03;;;;;;;13.10;35.86;99628.02;1680611;82;21152;-77
2021/04/26 08:47:38;;;;;;;;;;;;;;;13.17;35.54;99626.34;1691996;82;21194;-73
2021/04/26 08:50:08;;;;;;;14.00;7.30;;;;;;;13.26;35.58;99626.84;1698512;83;20194;-75
2021/04/26 08:52:37;;;;;;;19.15;5.50;;;;;;;13.33;35.76;99625.19;1688691;83;21636;-73
2021/04/26 08:55:06;;;;;;;20.40;6.78;;;;;;;13.34;34.93;99627.64;1615805;86;21632;-76
2021/04/26 08:57:34;;;;;;;13.15;4.90;;;;;;;13.36;34.37;99618.55;1675038;82;21199;-74
2021/04/26 09:00:06;;;;;;;12.00;4.70;;;;;;;13.37;34.11;99613.88;1689716;84;21245;-73
2021/04/26 09:03:00;;;;;;;14.60;4.87;;;;;;;13.38;34.25;99617.71;1703415;82;21209;-76
2021/04/26 09:05:33;;;;;;;12.50;4.47;;;;;;;13.42;34.40;99615.23;1682788;84;21112;-73
2021/04/26 09:08:03;;;;;;;11.48;3.95;;;;;;;13.45;34.58;99601.48;1683509;83;21851;-77
2021/04/26 09:10:45;;;;;;;24.87;6.28;;;;;;;13.47;34.13;99605.58;1700967;83;21171;-75
2021/04/26 09:13:42;;;;;;;16.50;5.45;;;;;;;13.50;33.97;99605.02;1697424;82;21380;-73
2021/04/26 09:16:21;;;;;;;9.35;4.03;;;;;;;13.51;33.68;99597.61;1698594;82;21302;-77
2021/04/26 09:19:02;;;;;;;13.32;4.08;;;;;;;13.50;33.05;99601.45;1707028;82;21122;-75
2021/04/26 09:21:34;;;;;;;16.57;3.98;;;;;;;13.47;32.39;99600.09;1738863;81;21153;-77
2021/04/26 09:24:25;;;;;;;17.77;4.00;;;;;;;13.43;32.42;99594.07;1731273;81;21703;-75
2021/04/26 09:27:06;;;;;;;12.23;3.98;;;;;;;13.44;32.66;99591.57;1731422;81;21281;-76
2021/04/26 09:29:34;;;;;;;12.18;3.50;;;;;;;13.49;32.25;99586.05;1731703;81;21125;-78
2021/04/26 09:32:07;;;;;;;18.67;3.70;;;;;;;13.57;32.83;99582.70;1723864;82;21186;-75
2021/04/26 09:34:49;;;;;;;15.20;4.37;;;;;;;13.69;32.23;99574.92;1733695;81;21660;-73
2021/04/26 09:37:25;;;;;;;11.30;3.47;;;;;;;13.80;32.60;99579.25;1706147;82;21449;-71
2021/04/26 09:40:12;;;;;;;14.50;4.03;;;;;;;13.85;32.22;99563.55;1698595;82;21157;-72
2021/04/26 09:42:55;;;;;;;13.68;4.03;;;;;;;13.89;31.90;99561.02;1684413;85;21153;-76
2021/04/26 09:45:39;;;;;;;22.07;4.10;;;;;;;13.91;32.79;99561.58;1676315;83;21156;-75
2021/04/26 09:48:16;;;;;;;19.20;4.20;;;;;;;13.94;31.24;99566.48;1698680;82;21144;-73
2021/04/26 09:51:13;;;;;;;12.85;3.80;;;;;;;13.93;32.42;99569.81;1694015;82;21180;-75
2021/04/26 09:53:45;;;;;;;12.03;4.10;;;;;;;13.93;32.04;99554.68;1665692;84;21287;-74
2021/04/26 09:56:24;;;;;;;8.33;3.70;;;;;;;13.92;31.65;99563.20;1699177;82;21729;-74
2021/04/26 09:58:56;;;;;;;9.88;3.50;;;;;;;13.90;31.45;99558.55;1697483;84;21453;-73
2021/04/26 10:01:26;;;;;;;29.42;4.55;;;;;;;13.97;31.50;99551.61;1734026;81;21121;-74
2021/04/26 10:03:55;;;;;;;17.05;4.22;;;;;;;14.14;32.30;99548.42;1676174;84;21154;-75
2021/04/26 10:06:27;;;;;;;12.05;3.62;;;;;;;14.29;31.91;99538.68;1688591;82;21113;-77
2021/04/26 10:09:01;;;;;;;14.80;3.83;;;;;;;14.33;31.33;99543.89;1674466;82;21212;-75
2021/04/26 10:11:32;;;;;;;16.02;3.87;;;;;;;14.35;30.79;99534.78;1702881;82;21377;-72
2021/04/26 10:14:14;;;;;;;14.30;3.87;;;;;;;14.30;31.22;99544.44;1684354;84;21104;-74
2021/04/26 10:17:09;;;;;;;8.33;3.40;;;;;;;14.29;31.31;99530.42;1658876;83;21189;-77
2021/04/26 10:19:47;;;;;;;8.98;3.42;;;;;;;14.32;31.61;99533.98;1744389;80;21200;-78
2021/04/26 10:22:37;;;;;;;14.13;3.83;;;;;;;14.33;30.31;99525.17;1725404;81;21159;-76
2021/04/26 10:25:09;;;;;;;9.78;3.47;;;;;;;14.32;30.96;99525.72;1736350;80;21161;-75
2021/04/26 10:27:41;;;;;;;17.23;4.00;;;;;;;14.28;30.94;99516.38;1741830;81;21253;-77
2021/04/26 10:30:16;;;;;;;12.68;3.80;;;;;;;14.29;31.00;99509.78;1732879;81;21188;-74
2021/04/26 10:33:02;;;;;;;16.73;3.83;;;;;;;14.33;31.17;99516.36;1683356;83;21165;-74
2021/04/26 10:35:46;;;;;;;6.75;3.45;;;;;;;14.37;31.15;99506.39;1689452;82;21145;-76
2021/04/26 10:38:41;;;;;;;8.93;3.80;;;;;;;14.35;30.62;99503.67;1673142;83;21605;-72
2021/04/26 10:41:14;;;;;;;12.37;3.95;;;;;;;14.27;30.24;99513.34;1675726;84;21184;-76
2021/04/26 10:43:52;;;;;;;10.23;3.85;;;;;;;14.17;30.37;99499.69;1696449;82;21176;-76
2021/04/26 10:46:22;;;;;;;22.98;4.40;;;;;;;14.11;31.04;99498.11;1701066;83;21736;-76
2021/04/26 10:49:09;;;;;;;16.32;4.20;;;;;;;14.05;31.68;99499.27;1695489;82;21141;-76
2021/04/26 10:51:38;;;;;;;11.57;4.80;;;;;;;14.04;30.99;99491.31;1693142;82;21177;-74
2021/04/26 10:54:07;;;;;;;12.90;3.80;;;;;;;14.04;30.74;99488.56;1698136;82;21216;-77
2021/04/26 10:56:38;;;;;;;8.85;3.70;;;;;;;14.08;31.37;99481.35;1696802;84;21194;-77
2021/04/26 10:59:19;;;;;;;;;;;;;;;14.13;31.83;99481.30;1697473;82;21247;-77
2021/04/26 11:01:52;;;;;;;8.35;3.47;;;;;;;14.13;30.30;99482.13;1691508;83;20165;-76
2021/04/26 11:04:20;;;;;;;9.55;3.55;;;;;;;14.10;30.89;99481.88;1691381;82;21188;-76
2021/04/26 11:07:19;;;;;;;17.52;4.97;;;;;;;14.08;30.24;99482.17;1671070;84;21148;-76
2021/04/26 11:09:44;;;;;;;27.42;5.15;;;;;;;14.06;30.57;99473.95;1708471;82;21259;-76
2021/04/26 11:12:31;;;;;;;10.03;3.87;;;;;;;14.04;31.76;99473.42;1702554;82;21153;-77
2021/04/26 11:15:14;;;;;;;8.70;3.70;;;;;;;14.05;31.23;99467.63;1678202;83;21254;-76
2021/04/26 11:17:43;;;;;;;9.15;3.72;;;;;;;14.06;31.52;99453.31;1693167;84;21135;-75
2021/04/26 11:20:18;;;;;;;13.30;3.85;;;;;;;14.07;30.88;99453.56;1711142;82;21270;-74
2021/04/26 11:22:47;;;;;;;21.75;4.33;;;;;;;14.05;30.74;99462.12;1696763;82;21125;-74
2021/04/26 11:25:41;;;;;;;12.23;4.28;;;;;;;14.03;30.54;99453.34;1715360;82;21200;-73
2021/04/26 11:28:09;;;;;;;9.58;4.30;;;;;;;14.00;30.26;99444.28;1699639;82;21153;-74
2021/04/26 11:30:37;;;;;;;11.85;4.33;;;;;;;13.93;30.25;99450.69;1739100;81;21152;-77
2021/04/26 11:33:09;;;;;;;20.70;4.92;;;;;;;13.88;30.60;99456.23;1735802;81;21194;-75
2021/04/26 11:35:59;;;;;;;11.97;3.90;;;;;;;13.83;31.37;99450.23;1733862;81;21159;-76
2021/04/26 11:38:27;;;;;;;12.07;4.35;;;;;;;13.79;31.82;99445.58;1735584;81;21113;-76
2021/04/26 11:40:54;;;;;;;7.90;3.77;;;;;;;13.77;31.45;99443.13;1720804;81;21185;-74
2021/04/26 11:43:22;;;;;;;15.03;6.30;;;;;;;13.75;31.64;99440.40;1729303;81;21148;-77
2021/04/26 11:45:51;;;;;;;10.55;4.08;;;;;;;13.71;31.32;99436.59;1739452;81;21463;-76
2021/04/26 11:48:21;;;;;;;17.90;4.20;;;;;;;13.69;31.77;99444.29;1733526;81;21634;-73
2021/04/26 11:50:50;;;;;;;15.72;4.00;;;;;;;13.62;31.38;99435.56;1735633;81;21554;-77